Knights Landing, California
Current Conditions -  °F | °C
As of 6:53 PM on Monday 26 Jan 2015 (Local Time) from KSMF Reporting Station
Overcast Overcast  
Wind Chill: 57°   Ceiling: 15000
Heat Index: 57°   Visibility: 8mi
Dew Point: 47°   Wind: 8mph
Humidity: 69%   Direction: 180°S
Pressure: 29.99"   Gusts: NA
Location:  38.8°N, 121.72°W
Report Text: KSMF 270253Z 18007KT 8SM OVC150 14/08 A2999 RMK AO2 SLP156 T01390083 53007
Loading
Personal Weather Stations






























Interactive Weather Map New forecast layout! Learn more

10-Day Weather Forecast

Advertisements
Track Severe Weather on mobile